Airfield :
LOGIN :

Register | Disclaimer

   EN    FR    IT 

 










Legend :    VFR   Marginal VFR   IFR   Intensive IFR   Very Intensive IFR
Visi :
Ceiling :
>= 8 km
>= 3000ft
5 to 8 km
1000 to 3000 ft
1500m to 5 km
500 to 1000 ft
800 to 1500m
200 to 500 ft
< 800m
< 200 ft
Symbols :   Thunderstorms  Fog  Heavy snow  Heavy precipitations  Wind > 20 kt
SIGMETs :     Misc.  Thunderstorms  Icing  Turbulence  Mountain Waves  Volcanic Ashes






- Airport Elevation : 628 ft
- IATA code : CMR


LFGA - Colmar-Houssen

CURRENT METAR :
  • 301430Z AUTO 36009KT 9999 FEW010 OVC034 07/06 Q1020

EXPIRED METARs :
  • 301400Z AUTO 01010KT 9999 FEW011 OVC032 08/06 Q1020
  • 301330Z AUTO 01009KT 9999 FEW010 OVC035 08/06 Q1020
  • 301300Z AUTO 01009KT 9999 SCT010 OVC036 08/06 Q1020
  • 301230Z AUTO 01009KT 9999 FEW008 OVC033 08/06 Q1020
  • 301200Z AUTO 36009KT 9999 FEW010 BKN029 OVC037 08/06 Q1020

TAF N/A



MET'MAP, your aeronautical weather chart ! - Copyright ORBIFLY December 2007 - Disclaimer

ORBIFLY MET'MAP TEAM :

Programming & Development : Alexandra Zaïnal
Original concept : Baudouin d'Aumeries
Technical & hardware support : Manuel Goepfert
Assistance : Marc-Olivier Méhu




SOURCES & CREDITS :

   NOAA